createdAt,value
2019-01-02T00:02:14.905Z,3.70
2019-01-02T00:04:42.526Z,3.60
2019-01-02T00:07:10.320Z,3.60
2019-01-02T00:09:37.941Z,3.50
2019-01-02T00:12:05.724Z,3.50
2019-01-02T00:14:33.336Z,3.50
2019-01-02T00:17:01.349Z,3.40
2019-01-02T00:19:28.957Z,3.50
2019-01-02T00:21:56.948Z,3.50
2019-01-02T00:24:24.560Z,3.50
2019-01-02T00:26:52.191Z,3.50
2019-01-02T00:29:19.820Z,3.50
2019-01-02T00:31:47.422Z,3.50
2019-01-02T00:34:15.304Z,3.40
2019-01-02T00:36:42.916Z,3.20
2019-01-02T00:39:10.905Z,3.20
2019-01-02T00:41:38.508Z,3.20
2019-01-02T00:44:06.493Z,3.20
2019-01-02T00:46:34.114Z,3.10
2019-01-02T00:49:02.005Z,3.10
2019-01-02T00:51:29.639Z,3.10
2019-01-02T00:53:57.419Z,3.10
2019-01-02T00:56:25.036Z,3.10
2019-01-02T00:58:52.821Z,3.20
2019-01-02T01:01:20.472Z,3.30
2019-01-02T01:03:48.083Z,3.30
2019-01-02T01:06:15.707Z,3.30
2019-01-02T01:08:43.328Z,3.30
2019-01-02T01:11:10.939Z,3.20
2019-01-02T01:13:38.594Z,3.20
2019-01-02T01:16:06.290Z,3.10
2019-01-02T01:18:33.932Z,3.10
2019-01-02T01:21:01.806Z,3.10
2019-01-02T01:23:29.414Z,3.00
2019-01-02T01:25:57.036Z,3.10
2019-01-02T01:28:24.726Z,3.10
2019-01-02T01:30:52.351Z,3.10
2019-01-02T01:33:20.225Z,3.10
2019-01-02T01:35:47.857Z,3.10
2019-01-02T01:38:15.482Z,3.00
2019-01-02T01:40:43.365Z,3.00
2019-01-02T01:43:10.982Z,3.00
2019-01-02T01:45:38.993Z,2.90
2019-01-02T01:48:06.619Z,2.80
2019-01-02T01:50:34.245Z,2.70
2019-01-02T01:53:02.136Z,2.60
2019-01-02T01:55:29.745Z,2.50
2019-01-02T01:57:57.743Z,2.50
2019-01-02T02:00:25.372Z,2.60
2019-01-02T02:02:52.968Z,2.60
2019-01-02T02:05:20.873Z,2.60
2019-01-02T02:07:48.494Z,2.60
2019-01-02T02:10:16.487Z,2.60
2019-01-02T02:12:44.107Z,2.60
2019-01-02T02:15:11.719Z,2.70
2019-01-02T02:17:39.637Z,2.70
2019-01-02T02:20:08.630Z,2.70
2019-01-02T02:22:36.537Z,2.70
2019-01-02T02:25:05.689Z,2.70
2019-01-02T02:27:33.307Z,2.80
2019-01-02T02:30:01.316Z,2.70
2019-01-02T02:32:28.958Z,2.70
2019-01-02T02:34:56.605Z,2.60
2019-01-02T02:37:24.201Z,2.60
2019-01-02T02:39:51.808Z,2.60
2019-01-02T02:42:19.697Z,2.60
2019-01-02T02:44:47.688Z,2.60
2019-01-02T02:47:15.557Z,2.70
2019-01-02T02:49:43.203Z,2.70
2019-01-02T02:52:10.824Z,2.60
2019-01-02T02:54:38.448Z,2.70
2019-01-02T02:57:06.069Z,2.70
2019-01-02T02:59:33.680Z,2.60
2019-01-02T03:02:01.578Z,2.70
2019-01-02T03:04:29.561Z,2.70
2019-01-02T03:06:57.543Z,2.70
2019-01-02T03:09:25.440Z,2.70
2019-01-02T03:11:53.071Z,2.80
2019-01-02T03:14:20.681Z,2.70
2019-01-02T03:16:48.690Z,2.80
2019-01-02T03:19:16.697Z,2.90
2019-01-02T03:21:44.673Z,2.90
2019-01-02T03:24:12.567Z,2.90
2019-01-02T03:26:40.182Z,3.00
2019-01-02T03:29:07.948Z,2.90
2019-01-02T03:31:35.797Z,2.80
2019-01-02T03:34:03.785Z,2.70
2019-01-02T03:36:31.405Z,2.70
2019-01-02T03:38:59.017Z,2.60
2019-01-02T03:41:26.639Z,2.50
2019-01-02T03:43:54.268Z,2.40
2019-01-02T03:46:21.892Z,2.40
2019-01-02T03:48:49.509Z,2.30
2019-01-02T03:51:17.121Z,2.30
2019-01-02T03:53:44.741Z,2.40
2019-01-02T03:56:12.348Z,2.40
2019-01-02T03:58:39.987Z,2.40
2019-01-02T04:01:07.604Z,2.50
2019-01-02T04:03:35.221Z,2.40
2019-01-02T04:06:02.834Z,2.30
2019-01-02T04:08:30.468Z,2.40
2019-01-02T04:10:58.080Z,2.40
2019-01-02T04:13:25.705Z,2.30
2019-01-02T04:15:53.333Z,2.30
2019-01-02T04:18:20.949Z,2.40
2019-01-02T04:20:48.569Z,2.40
2019-01-02T04:23:16.192Z,2.40
2019-01-02T04:25:43.793Z,2.40
2019-01-02T04:28:13.060Z,2.40
2019-01-02T04:30:40.672Z,2.40
2019-01-02T04:33:08.288Z,2.40
2019-01-02T04:35:35.904Z,2.40
2019-01-02T04:38:03.527Z,2.40
2019-01-02T04:40:31.159Z,2.40
2019-01-02T04:42:58.779Z,2.40
2019-01-02T04:45:26.413Z,2.40
2019-01-02T04:47:54.012Z,2.40
2019-01-02T04:50:21.643Z,2.40
2019-01-02T04:52:49.263Z,2.40
2019-01-02T04:55:16.885Z,2.40
2019-01-02T04:57:44.517Z,2.40
2019-01-02T05:00:15.651Z,2.50
2019-01-02T05:02:43.261Z,2.50
2019-01-02T05:05:10.891Z,2.40
2019-01-02T05:07:38.505Z,2.40
2019-01-02T05:10:07.703Z,2.40
2019-01-02T05:12:35.334Z,2.40
2019-01-02T05:15:02.936Z,2.40
2019-01-02T05:17:30.556Z,2.40
2019-01-02T05:19:58.178Z,2.40
2019-01-02T05:22:25.791Z,2.40
2019-01-02T05:24:53.433Z,2.40
2019-01-02T05:27:21.044Z,2.40
2019-01-02T05:29:48.657Z,2.40
2019-01-02T05:32:16.260Z,2.40
2019-01-02T05:34:43.897Z,2.40
2019-01-02T05:37:11.514Z,2.40
2019-01-02T05:39:39.144Z,2.30
2019-01-02T05:42:06.757Z,2.30
2019-01-02T05:44:34.384Z,2.30
2019-01-02T05:47:01.985Z,2.30
2019-01-02T05:49:29.631Z,2.30
2019-01-02T05:51:57.248Z,2.30
2019-01-02T05:54:24.871Z,2.30
2019-01-02T05:56:52.649Z,2.30
2019-01-02T05:59:20.308Z,2.30
2019-01-02T06:01:47.900Z,2.30
2019-01-02T06:04:15.512Z,2.30
2019-01-02T06:06:43.131Z,2.30
2019-01-02T06:09:10.745Z,2.30
2019-01-02T06:11:38.360Z,2.40
2019-01-02T06:14:05.977Z,2.40
2019-01-02T06:16:33.584Z,2.40
2019-01-02T06:19:01.212Z,2.40
2019-01-02T06:21:28.830Z,2.40
2019-01-02T06:23:56.470Z,2.40
2019-01-02T06:26:24.080Z,2.40
2019-01-02T06:28:51.715Z,2.40
2019-01-02T06:31:19.317Z,2.40
2019-01-02T06:33:46.949Z,2.40
2019-01-02T06:36:14.557Z,2.40
2019-01-02T06:38:42.172Z,2.40
2019-01-02T06:41:09.785Z,2.40
2019-01-02T06:43:37.400Z,2.40
2019-01-02T06:46:05.083Z,2.40
2019-01-02T06:48:32.686Z,2.30
2019-01-02T06:51:00.328Z,2.40
2019-01-02T06:53:27.928Z,2.40
2019-01-02T06:55:55.541Z,2.40
2019-01-02T06:58:23.145Z,2.40
2019-01-02T07:00:51.033Z,2.40
2019-01-02T07:03:18.637Z,2.40
2019-01-02T07:05:46.267Z,2.40
2019-01-02T07:08:14.042Z,2.40
2019-01-02T07:10:41.644Z,2.40
2019-01-02T07:13:09.261Z,2.40
2019-01-02T07:15:36.884Z,2.30
2019-01-02T07:18:04.568Z,2.30
2019-01-02T07:20:32.184Z,2.30
2019-01-02T07:22:59.794Z,2.40
2019-01-02T07:25:27.415Z,2.30
2019-01-02T07:27:55.043Z,2.40
2019-01-02T07:30:22.855Z,2.40
2019-01-02T07:32:50.495Z,2.30
2019-01-02T07:35:34.576Z,2.40
2019-01-02T07:38:03.729Z,2.40
2019-01-02T07:40:38.643Z,2.40
2019-01-02T07:43:07.794Z,2.40
2019-01-02T07:45:36.948Z,2.40
2019-01-02T07:48:17.978Z,2.40
2019-01-02T07:50:47.144Z,2.40
2019-01-02T07:53:19.252Z,2.40
2019-01-02T07:56:04.888Z,2.40
2019-01-02T07:58:50.192Z,2.40
2019-01-02T08:01:25.339Z,2.30
2019-01-02T08:04:09.611Z,2.30
2019-01-02T08:06:41.495Z,2.30
2019-01-02T08:09:13.322Z,2.30
2019-01-02T08:11:48.372Z,2.40
2019-01-02T08:14:29.484Z,2.40
2019-01-02T08:17:01.310Z,2.40
2019-01-02T08:19:46.977Z,2.50
2019-01-02T08:22:32.378Z,2.50
2019-01-02T08:25:04.176Z,2.60
2019-01-02T08:27:33.320Z,2.60
2019-01-02T08:30:05.451Z,2.50
2019-01-02T08:32:46.648Z,2.50
2019-01-02T08:35:18.805Z,2.40
2019-01-02T08:37:53.842Z,2.40
2019-01-02T08:40:25.688Z,2.40
2019-01-02T08:43:00.793Z,2.40
2019-01-02T08:45:44.693Z,2.30
2019-01-02T08:48:16.565Z,2.30
2019-01-02T08:50:51.337Z,2.30
2019-01-02T08:53:37.074Z,2.30
2019-01-02T08:56:09.193Z,2.40
2019-01-02T08:58:41.233Z,2.40
2019-01-02T09:01:10.625Z,2.60
2019-01-02T09:03:56.052Z,2.70
2019-01-02T09:06:30.933Z,2.80
2019-01-02T09:09:00.076Z,2.80
2019-01-02T09:11:35.376Z,2.80
2019-01-02T09:14:10.308Z,2.70
2019-01-02T09:16:39.468Z,2.70
2019-01-02T09:19:08.637Z,2.70
2019-01-02T09:21:40.751Z,2.80
2019-01-02T09:24:15.904Z,2.80
2019-01-02T09:26:51.071Z,2.90
2019-01-02T09:29:29.191Z,2.90
2019-01-02T09:32:00.753Z,2.90
2019-01-02T09:34:44.980Z,2.80
2019-01-02T09:37:25.965Z,2.80
2019-01-02T09:39:55.109Z,2.70
2019-01-02T09:42:42.268Z,2.70
2019-01-02T09:45:14.085Z,2.80
2019-01-02T09:47:49.281Z,2.80
2019-01-02T09:50:34.929Z,2.90
2019-01-02T09:53:06.876Z,3.00
2019-01-02T09:55:38.941Z,3.00
2019-01-02T09:58:26.134Z,2.80
2019-01-02T10:00:55.292Z,2.60
2019-01-02T10:03:40.612Z,2.60
2019-01-02T10:06:26.306Z,2.70
2019-01-02T10:08:55.453Z,2.80
2019-01-02T10:11:24.623Z,2.70
2019-01-02T10:14:02.576Z,2.60
2019-01-02T10:16:31.724Z,2.60
2019-01-02T10:19:18.952Z,2.50
2019-01-02T10:21:50.853Z,2.30
2019-01-02T10:24:22.673Z,2.10
2019-01-02T10:26:51.840Z,2.10
2019-01-02T10:29:27.048Z,2.10
2019-01-02T10:31:56.212Z,2.30
2019-01-02T10:34:25.359Z,2.50
2019-01-02T10:37:00.320Z,2.70
2019-01-02T10:39:32.472Z,2.90
2019-01-02T10:42:04.352Z,2.80
2019-01-02T10:44:48.516Z,2.80
2019-01-02T10:47:20.629Z,2.80
2019-01-02T10:50:01.745Z,2.80
2019-01-02T10:52:47.669Z,2.90
2019-01-02T10:55:16.849Z,2.90
2019-01-02T10:57:51.755Z,2.90
2019-01-02T11:00:20.905Z,2.90
2019-01-02T11:02:50.050Z,2.90
2019-01-02T11:05:33.944Z,3.00
2019-01-02T11:08:05.780Z,3.00
2019-01-02T11:10:34.924Z,3.00
2019-01-02T11:13:12.905Z,3.00
2019-01-02T11:15:42.055Z,3.10
2019-01-02T11:18:29.095Z,3.20
2019-01-02T11:21:00.988Z,3.20
2019-01-02T11:23:33.060Z,3.20
2019-01-02T11:26:18.745Z,3.30
2019-01-02T11:28:48.696Z,3.40
2019-01-02T11:31:17.849Z,3.70
2019-01-02T11:33:52.771Z,3.80
2019-01-02T11:36:30.604Z,3.80
2019-01-02T11:39:16.139Z,3.70
2019-01-02T11:41:45.292Z,3.60
2019-01-02T11:44:23.180Z,3.80
2019-01-02T11:46:50.794Z,4.20
2019-01-02T11:49:18.413Z,4.50
2019-01-02T11:51:46.031Z,4.60
2019-01-02T11:54:13.648Z,4.90
2019-01-02T11:56:41.262Z,5.00
2019-01-02T11:59:08.872Z,5.00
2019-01-02T12:01:36.501Z,5.30
2019-01-02T12:04:04.109Z,5.10
2019-01-02T12:06:31.730Z,5.00
2019-01-02T12:08:59.347Z,5.20
2019-01-02T12:11:26.967Z,5.30
2019-01-02T12:13:54.584Z,5.10
2019-01-02T12:16:22.201Z,5.10
2019-01-02T12:18:49.829Z,5.00
2019-01-02T12:21:17.433Z,4.60
2019-01-02T12:23:45.032Z,4.80
2019-01-02T12:26:12.660Z,4.70
2019-01-02T12:28:40.254Z,5.10
2019-01-02T12:31:07.883Z,5.30
2019-01-02T12:33:35.488Z,5.80
2019-01-02T12:36:03.124Z,5.70
2019-01-02T12:38:30.738Z,5.90
2019-01-02T12:40:58.360Z,6.00
2019-01-02T12:43:25.980Z,5.40
2019-01-02T12:45:53.608Z,4.90
2019-01-02T12:48:21.222Z,4.50
2019-01-02T12:50:48.844Z,4.30
2019-01-02T12:53:16.494Z,4.20
2019-01-02T12:55:44.111Z,4.30
2019-01-02T12:58:11.735Z,4.00
2019-01-02T13:00:40.903Z,3.70
2019-01-02T13:03:10.040Z,3.30
2019-01-02T13:05:55.498Z,3.00
2019-01-02T13:08:24.649Z,2.40
2019-01-02T13:10:53.840Z,2.10
2019-01-02T13:13:22.969Z,2.00
2019-01-02T13:16:08.658Z,2.00
2019-01-02T13:18:37.801Z,2.10
2019-01-02T13:21:06.957Z,2.20
2019-01-02T13:23:36.105Z,2.30
2019-01-02T13:26:05.275Z,2.20
2019-01-02T13:28:34.416Z,2.30
2019-01-02T13:31:21.441Z,2.30
2019-01-02T13:33:50.579Z,2.40
2019-01-02T13:36:19.731Z,2.50
2019-01-02T13:38:48.879Z,2.60
2019-01-02T13:41:23.780Z,2.70
2019-01-02T13:43:52.932Z,2.70
2019-01-02T13:46:22.102Z,2.80
2019-01-02T13:48:51.258Z,2.80
2019-01-02T13:51:19.045Z,2.80
2019-01-02T13:53:46.648Z,2.80
2019-01-02T13:56:14.271Z,2.80
2019-01-02T13:58:41.901Z,2.80
2019-01-02T14:01:09.522Z,2.80
2019-01-02T14:03:37.159Z,3.20
2019-01-02T14:06:04.796Z,3.60
2019-01-02T14:08:32.424Z,3.90
2019-01-02T14:11:00.045Z,4.20
2019-01-02T14:13:27.661Z,4.30
2019-01-02T14:15:55.268Z,4.10
2019-01-02T14:18:22.901Z,3.70
2019-01-02T14:20:50.496Z,3.50
2019-01-02T14:23:18.177Z,3.30
2019-01-02T14:25:45.794Z,3.20
2019-01-02T14:28:13.417Z,3.20
2019-01-02T14:30:41.025Z,3.10
2019-01-02T14:33:08.649Z,3.10
2019-01-02T14:35:36.257Z,3.00
2019-01-02T14:38:03.883Z,3.00
2019-01-02T14:40:31.499Z,3.00
2019-01-02T14:42:59.119Z,2.90
2019-01-02T14:45:26.737Z,2.90
2019-01-02T14:47:54.365Z,2.90
2019-01-02T14:50:21.976Z,2.80
2019-01-02T14:52:49.611Z,2.80
2019-01-02T14:55:17.225Z,2.80
2019-01-02T14:57:44.862Z,2.80
2019-01-02T15:00:12.533Z,2.90
2019-01-02T15:02:40.149Z,2.90
2019-01-02T15:05:07.817Z,3.00
2019-01-02T15:07:35.433Z,3.10
2019-01-02T15:10:03.726Z,3.10
2019-01-02T15:12:31.333Z,3.10
2019-01-02T15:14:58.949Z,3.00
2019-01-02T15:17:26.633Z,2.90
2019-01-02T15:19:54.252Z,2.90
2019-01-02T15:22:21.878Z,2.80
2019-01-02T15:24:49.670Z,2.80
2019-01-02T15:27:17.307Z,2.80
2019-01-02T15:29:44.929Z,2.70
2019-01-02T15:32:12.528Z,2.60
2019-01-02T15:34:40.163Z,2.60
2019-01-02T15:37:07.778Z,2.60
2019-01-02T15:39:35.413Z,2.60
2019-01-02T15:42:03.035Z,2.50
2019-01-02T15:44:30.656Z,2.50
2019-01-02T15:46:58.265Z,2.50
2019-01-02T15:49:25.882Z,2.40
2019-01-02T15:51:53.512Z,2.50
2019-01-02T15:54:21.153Z,2.50
2019-01-02T15:56:48.756Z,2.40
2019-01-02T15:59:16.391Z,2.40
2019-01-02T16:01:43.997Z,2.40
2019-01-02T16:04:11.647Z,2.30
2019-01-02T16:06:39.249Z,2.30
2019-01-02T16:09:06.963Z,2.20
2019-01-02T16:11:34.583Z,2.10
2019-01-02T16:14:02.216Z,2.00
2019-01-02T16:16:29.843Z,2.00
2019-01-02T16:18:57.463Z,1.90
2019-01-02T16:21:25.066Z,1.90
2019-01-02T16:23:52.697Z,1.90
2019-01-02T16:26:20.323Z,1.80
2019-01-02T16:28:47.937Z,1.80
2019-01-02T16:31:15.559Z,1.80
2019-01-02T16:33:43.188Z,1.80
2019-01-02T16:36:10.793Z,1.70
2019-01-02T16:38:38.422Z,1.70
2019-01-02T16:41:06.024Z,1.70
2019-01-02T16:43:33.632Z,1.70
2019-01-02T16:46:01.249Z,1.60
2019-01-02T16:48:28.856Z,1.60
2019-01-02T16:50:56.500Z,1.60
2019-01-02T16:53:24.113Z,1.60
2019-01-02T16:55:51.732Z,1.50
2019-01-02T16:58:19.357Z,1.50
2019-01-02T17:00:46.972Z,1.50
2019-01-02T17:03:14.596Z,1.40
2019-01-02T17:05:42.216Z,1.40
2019-01-02T17:08:09.833Z,1.40
2019-01-02T17:10:37.468Z,1.40
2019-01-02T17:13:05.071Z,1.40
2019-01-02T17:15:32.699Z,1.40
2019-01-02T17:18:00.327Z,1.40
2019-01-02T17:20:27.936Z,1.40
2019-01-02T17:22:55.546Z,1.40
2019-01-02T17:25:23.162Z,1.40
2019-01-02T17:27:50.786Z,1.40
2019-01-02T17:30:18.392Z,1.40
2019-01-02T17:32:46.002Z,1.30
2019-01-02T17:35:13.629Z,1.40
2019-01-02T17:37:41.236Z,1.30
2019-01-02T17:40:08.895Z,1.30
2019-01-02T17:42:36.504Z,1.30
2019-01-02T17:45:04.984Z,1.30
2019-01-02T17:47:32.611Z,1.30
2019-01-02T17:50:00.242Z,1.30
2019-01-02T17:52:27.915Z,1.30
2019-01-02T17:54:55.604Z,1.30
2019-01-02T17:57:23.222Z,1.20
2019-01-02T17:59:51.398Z,1.10
2019-01-02T18:02:19.024Z,1.10
2019-01-02T18:04:46.641Z,1.10
2019-01-02T18:07:14.320Z,1.20
2019-01-02T18:09:41.939Z,1.10
2019-01-02T18:12:09.567Z,1.20
2019-01-02T18:14:37.194Z,1.20
2019-01-02T18:17:04.819Z,1.20
2019-01-02T18:19:32.451Z,1.20
2019-01-02T18:22:00.090Z,1.20
2019-01-02T18:24:27.692Z,1.20
2019-01-02T18:26:55.315Z,1.30
2019-01-02T18:29:22.917Z,1.20
2019-01-02T18:31:50.546Z,1.20
2019-01-02T18:34:18.156Z,1.10
2019-01-02T18:36:45.818Z,1.10
2019-01-02T18:39:13.420Z,1.10
2019-01-02T18:41:41.047Z,1.10
2019-01-02T18:44:08.660Z,1.00
2019-01-02T18:46:36.273Z,1.00
2019-01-02T18:49:03.961Z,1.00
2019-01-02T18:51:31.584Z,0.90
2019-01-02T18:53:59.232Z,0.80
2019-01-02T18:56:26.861Z,0.80
2019-01-02T18:58:54.476Z,0.80
2019-01-02T19:01:22.101Z,0.80
2019-01-02T19:03:49.707Z,0.80
2019-01-02T19:06:17.335Z,0.80
2019-01-02T19:08:44.936Z,0.70
2019-01-02T19:11:12.636Z,0.70
2019-01-02T19:13:40.244Z,0.70
2019-01-02T19:16:07.868Z,0.70
2019-01-02T19:18:35.485Z,0.80
2019-01-02T19:21:03.109Z,0.70
2019-01-02T19:23:30.744Z,0.70
2019-01-02T19:25:58.428Z,0.60
2019-01-02T19:28:26.063Z,0.60
2019-01-02T19:30:53.686Z,0.60
2019-01-02T19:33:21.314Z,0.70
2019-01-02T19:35:48.928Z,0.70
2019-01-02T19:38:16.536Z,0.60
2019-01-02T19:40:44.161Z,0.60
2019-01-02T19:43:11.793Z,0.60
2019-01-02T19:45:39.416Z,0.50
2019-01-02T19:48:07.024Z,0.60
2019-01-02T19:50:34.632Z,0.60
2019-01-02T19:53:02.255Z,0.50
2019-01-02T19:55:29.907Z,0.50
2019-01-02T19:57:57.520Z,0.60
2019-01-02T20:00:25.141Z,0.50
2019-01-02T20:02:52.759Z,0.50
2019-01-02T20:05:20.383Z,0.40
2019-01-02T20:07:48.040Z,0.40
2019-01-02T20:10:16.908Z,0.50
2019-01-02T20:12:44.603Z,0.50
2019-01-02T20:15:12.244Z,0.50
2019-01-02T20:17:39.864Z,0.40
2019-01-02T20:20:08.853Z,0.40
2019-01-02T20:22:36.552Z,0.30
2019-01-02T20:25:04.768Z,0.20
2019-01-02T20:27:32.374Z,0.20
2019-01-02T20:29:59.985Z,0.10
2019-01-02T20:32:27.608Z,0.00
2019-01-02T20:34:55.236Z,-0.10
2019-01-02T20:37:22.885Z,-0.20
2019-01-02T20:39:50.496Z,-0.20
2019-01-02T20:42:18.121Z,-0.20
2019-01-02T20:44:45.740Z,-0.20
2019-01-02T20:47:13.395Z,-0.20
2019-01-02T20:49:41.001Z,0.00
2019-01-02T20:52:08.621Z,0.10
2019-01-02T20:54:36.240Z,0.20
2019-01-02T20:57:03.864Z,0.20
2019-01-02T20:59:31.472Z,0.20
2019-01-02T21:01:59.100Z,0.20
2019-01-02T21:04:26.717Z,0.20
2019-01-02T21:06:54.349Z,0.20
2019-01-02T21:09:21.953Z,0.20
2019-01-02T21:11:49.581Z,0.20
2019-01-02T21:14:17.210Z,0.20
2019-01-02T21:16:44.833Z,0.20
2019-01-02T21:19:12.464Z,0.20
2019-01-02T21:21:40.076Z,0.10
2019-01-02T21:24:07.684Z,0.10
2019-01-02T21:26:35.356Z,0.10
2019-01-02T21:29:02.961Z,0.10
2019-01-02T21:31:30.586Z,0.10
2019-01-02T21:33:58.200Z,0.00
2019-01-02T21:36:25.822Z,-0.10
2019-01-02T21:38:53.454Z,-0.10
2019-01-02T21:41:21.100Z,-0.10
2019-01-02T21:43:48.969Z,-0.20
2019-01-02T21:46:16.584Z,-0.20
2019-01-02T21:48:44.225Z,-0.10
2019-01-02T21:51:11.828Z,-0.10
2019-01-02T21:53:39.493Z,-0.20
2019-01-02T21:56:07.098Z,-0.20
2019-01-02T21:58:34.731Z,-0.20
2019-01-02T22:01:02.358Z,-0.20
2019-01-02T22:03:29.981Z,-0.20
2019-01-02T22:05:57.605Z,-0.20
2019-01-02T22:08:25.224Z,-0.20
2019-01-02T22:10:52.860Z,-0.20
2019-01-02T22:13:20.773Z,-0.30
2019-01-02T22:15:48.385Z,-0.40
2019-01-02T22:18:16.008Z,-0.40
2019-01-02T22:20:43.636Z,-0.50
2019-01-02T22:23:11.257Z,-0.60
2019-01-02T22:25:38.896Z,-0.70
2019-01-02T22:28:06.539Z,-0.80
2019-01-02T22:30:34.141Z,-0.90
2019-01-02T22:33:01.784Z,-0.90
2019-01-02T22:35:29.453Z,-0.90
2019-01-02T22:37:57.098Z,-0.70
2019-01-02T22:40:24.727Z,-0.70
2019-01-02T22:42:52.367Z,-0.80
2019-01-02T22:45:19.994Z,-0.70
2019-01-02T22:47:47.654Z,-0.80
2019-01-02T22:50:15.934Z,-0.80
2019-01-02T22:52:43.545Z,-0.80
2019-01-02T22:55:11.176Z,-0.90
2019-01-02T22:57:38.807Z,-0.90
2019-01-02T23:00:09.333Z,-0.90
2019-01-02T23:02:38.580Z,-1.00
2019-01-02T23:05:10.751Z,-1.10
2019-01-02T23:07:40.072Z,-1.10
2019-01-02T23:10:09.355Z,-1.10
2019-01-02T23:12:54.948Z,-1.20
2019-01-02T23:15:42.072Z,-1.20
2019-01-02T23:18:17.237Z,-1.20
2019-01-02T23:21:02.846Z,-1.20
2019-01-02T23:23:38.203Z,-1.20
2019-01-02T23:26:22.551Z,-1.10
2019-01-02T23:29:07.818Z,-1.10
2019-01-02T23:31:42.800Z,-1.10
2019-01-02T23:34:27.969Z,-1.00
2019-01-02T23:37:13.272Z,-1.00
2019-01-02T23:39:42.539Z,-1.10
2019-01-02T23:42:14.438Z,-1.20
2019-01-02T23:45:00.006Z,-1.20
2019-01-02T23:47:41.131Z,-1.30
2019-01-02T23:50:13.509Z,-1.40
2019-01-02T23:52:42.790Z,-1.40
2019-01-02T23:55:23.816Z,-1.40
2019-01-02T23:58:09.541Z,-1.50
